Archival Weather

Bridgeport/Sikorsky

Bridgeport, Connecticut (KBDR)

Report from: Friday, February 23, 2024 4:52 PM EST
Current time: Wednesday, May 29, 2024 7:26 PM EDT

Current weather – Weather history – Daily summaries
Weather forecast

Temperature6.1°C (43.0°F)
Dew point3.9°C (39.0°F)
Winds Calm
Visibility10 mi. (16.1 km)
Clouds Ceiling: Overcast 10,000 ft. (3,048 m)
Altimeter29.44 in.Hg (997 mB)
Relative humidity86 %
Density altitude-398 ft. (-121 m)
Sea-level pressure99.7 kPa (997 mB, 29.44 in.Hg)
Remarks Automated weather observing station with precipitation discriminator
Flight conditions Visual Meteorological Conditions
Raw dataKBDR 232152Z 00000KT 10SM OVC100 06/04 A2944 RMK AO2 SLP970 T00610039
An error has occurred. This application may no longer respond until reloaded. Reload 🗙